createdAt,value
2022-10-09T00:00:17.628Z,8
2022-10-09T00:01:17.740Z,9
2022-10-09T00:02:17.807Z,8
2022-10-09T00:03:17.668Z,8
2022-10-09T00:04:17.668Z,10
2022-10-09T00:05:17.638Z,8
2022-10-09T00:06:17.683Z,9
2022-10-09T00:07:17.635Z,9
2022-10-09T00:08:17.682Z,10
2022-10-09T00:09:17.719Z,9
2022-10-09T00:10:17.740Z,7
2022-10-09T00:11:17.709Z,7
2022-10-09T00:12:17.644Z,8
2022-10-09T00:13:17.594Z,9
2022-10-09T00:14:17.653Z,9
2022-10-09T00:15:17.710Z,8
2022-10-09T00:16:17.724Z,8
2022-10-09T00:17:17.751Z,8
2022-10-09T00:18:17.672Z,8
2022-10-09T00:19:17.615Z,10
2022-10-09T00:20:17.713Z,6
2022-10-09T00:21:17.587Z,9
2022-10-09T00:22:17.680Z,10
2022-10-09T00:23:17.717Z,8
2022-10-09T00:24:17.620Z,7
2022-10-09T00:25:17.647Z,6
2022-10-09T00:26:17.609Z,9
2022-10-09T00:27:17.700Z,7
2022-10-09T00:28:17.653Z,8
2022-10-09T00:29:17.744Z,6
2022-10-09T00:30:17.626Z,6
2022-10-09T00:31:17.705Z,8
2022-10-09T00:32:17.659Z,6
2022-10-09T00:33:17.759Z,5
2022-10-09T00:34:17.680Z,7
2022-10-09T00:35:17.668Z,8
2022-10-09T00:36:17.696Z,8
2022-10-09T00:37:17.594Z,9
2022-10-09T00:38:17.632Z,6
2022-10-09T00:39:17.648Z,6
2022-10-09T00:40:17.728Z,6
2022-10-09T00:41:17.718Z,8
2022-10-09T00:42:17.708Z,8
2022-10-09T00:43:17.711Z,7
2022-10-09T00:44:17.676Z,7
2022-10-09T00:45:17.612Z,9
2022-10-09T00:46:17.753Z,8
2022-10-09T00:47:17.674Z,7
2022-10-09T00:48:17.761Z,7
2022-10-09T00:49:17.763Z,9
2022-10-09T00:50:17.604Z,8
2022-10-09T00:51:17.654Z,11
2022-10-09T00:52:17.704Z,5
2022-10-09T00:53:17.607Z,6
2022-10-09T00:54:17.627Z,10
2022-10-09T00:55:17.635Z,9
2022-10-09T00:56:17.649Z,10
2022-10-09T00:57:17.635Z,5
2022-10-09T00:58:17.626Z,8
2022-10-09T00:59:17.653Z,8
2022-10-09T01:00:17.644Z,6
2022-10-09T01:01:17.732Z,6
2022-10-09T01:02:17.687Z,9
2022-10-09T01:03:17.643Z,8
2022-10-09T01:04:17.689Z,9
2022-10-09T01:05:17.610Z,10
2022-10-09T01:06:17.591Z,12
2022-10-09T01:07:17.616Z,5
2022-10-09T01:08:17.640Z,5
2022-10-09T01:09:17.622Z,7
2022-10-09T01:10:17.676Z,6
2022-10-09T01:11:17.713Z,6
2022-10-09T01:12:17.754Z,6
2022-10-09T01:13:17.698Z,7
2022-10-09T01:14:17.736Z,8
2022-10-09T01:15:17.604Z,8
2022-10-09T01:16:22.836Z,8
2022-10-09T01:17:17.622Z,7
2022-10-09T01:18:17.608Z,8
2022-10-09T01:19:17.789Z,9
2022-10-09T01:20:17.800Z,7
2022-10-09T01:21:17.702Z,6
2022-10-09T01:22:17.749Z,10
2022-10-09T01:23:17.934Z,6
2022-10-09T01:24:17.835Z,11
2022-10-09T01:25:17.834Z,8
2022-10-09T01:26:17.771Z,7
2022-10-09T01:27:17.850Z,7
2022-10-09T01:28:18.022Z,8
2022-10-09T01:29:17.626Z,10
2022-10-09T01:30:17.610Z,7
2022-10-09T01:31:17.668Z,8
2022-10-09T01:32:17.598Z,9
2022-10-09T01:33:17.621Z,8
2022-10-09T01:34:17.614Z,9
2022-10-09T01:35:17.648Z,9
2022-10-09T01:36:17.685Z,8
2022-10-09T01:37:17.599Z,7
2022-10-09T01:38:17.646Z,10
2022-10-09T01:39:17.674Z,7
2022-10-09T01:40:17.642Z,10
2022-10-09T01:41:17.592Z,11
2022-10-09T01:42:17.635Z,10
2022-10-09T01:43:17.703Z,11
2022-10-09T01:44:17.623Z,6
2022-10-09T01:45:17.611Z,7
2022-10-09T01:46:17.658Z,10
2022-10-09T01:47:17.616Z,8
2022-10-09T01:48:17.665Z,8
2022-10-09T01:49:17.641Z,8
2022-10-09T01:50:17.770Z,6
2022-10-09T01:51:17.770Z,8
2022-10-09T01:52:17.646Z,8
2022-10-09T01:53:17.653Z,7
2022-10-09T01:54:17.666Z,10
2022-10-09T01:55:17.664Z,8
2022-10-09T01:56:17.604Z,8
2022-10-09T01:57:17.598Z,10
2022-10-09T01:58:17.720Z,7
2022-10-09T01:59:17.741Z,8
2022-10-09T02:00:17.700Z,9
2022-10-09T02:01:17.943Z,11
2022-10-09T02:02:17.815Z,11
2022-10-09T02:03:17.733Z,8
2022-10-09T02:04:17.783Z,10
2022-10-09T02:05:17.616Z,9
2022-10-09T02:06:17.657Z,7
2022-10-09T02:07:17.775Z,9
2022-10-09T02:08:17.639Z,9
2022-10-09T02:09:17.620Z,8
2022-10-09T02:10:17.611Z,7
2022-10-09T02:11:17.650Z,7
2022-10-09T02:12:17.706Z,8
2022-10-09T02:13:17.629Z,6
2022-10-09T02:14:17.723Z,7
2022-10-09T02:15:17.710Z,9
2022-10-09T02:16:17.809Z,12
2022-10-09T02:17:17.699Z,8
2022-10-09T02:18:17.723Z,9
2022-10-09T02:19:17.722Z,6
2022-10-09T02:20:17.652Z,8
2022-10-09T02:21:17.712Z,8
2022-10-09T02:22:17.665Z,8
2022-10-09T02:23:17.632Z,8
2022-10-09T02:24:17.665Z,11
2022-10-09T02:25:17.663Z,11
2022-10-09T02:26:17.649Z,11
2022-10-09T02:27:17.656Z,9
2022-10-09T02:28:17.726Z,9
2022-10-09T02:29:17.708Z,8
2022-10-09T02:30:17.725Z,10
2022-10-09T02:31:17.727Z,7
2022-10-09T02:32:17.704Z,9
2022-10-09T02:33:17.711Z,9
2022-10-09T02:34:17.730Z,10
2022-10-09T02:35:17.843Z,6
2022-10-09T02:36:17.769Z,10
2022-10-09T02:37:17.805Z,7
2022-10-09T02:38:17.746Z,10
2022-10-09T02:39:17.874Z,11
2022-10-09T02:40:17.640Z,9
2022-10-09T02:41:17.637Z,14
2022-10-09T02:42:17.657Z,10
2022-10-09T02:43:17.768Z,8
2022-10-09T02:44:17.734Z,9
2022-10-09T02:45:17.675Z,8
2022-10-09T02:46:17.731Z,9
2022-10-09T02:47:17.688Z,9
2022-10-09T02:48:17.639Z,8
2022-10-09T02:49:17.705Z,10
2022-10-09T02:50:17.609Z,7
2022-10-09T02:51:17.610Z,9
2022-10-09T02:52:17.644Z,8
2022-10-09T02:53:17.707Z,11
2022-10-09T02:54:17.644Z,8
2022-10-09T02:55:17.687Z,12
2022-10-09T02:56:17.639Z,11
2022-10-09T02:57:17.641Z,9
2022-10-09T02:58:17.651Z,8
2022-10-09T02:59:17.607Z,11
2022-10-09T03:00:17.705Z,10
2022-10-09T03:01:17.697Z,9
2022-10-09T03:02:17.773Z,9
2022-10-09T03:03:17.734Z,10
2022-10-09T03:04:17.608Z,9
2022-10-09T03:05:17.705Z,9
2022-10-09T03:06:17.710Z,8
2022-10-09T03:07:17.601Z,7
2022-10-09T03:08:17.756Z,7
2022-10-09T03:09:17.742Z,8
2022-10-09T03:10:17.630Z,7
2022-10-09T03:11:17.670Z,8
2022-10-09T03:12:17.621Z,9
2022-10-09T03:13:17.596Z,8
2022-10-09T03:14:17.753Z,7
2022-10-09T03:15:17.672Z,9
2022-10-09T03:16:17.812Z,9
2022-10-09T03:17:17.640Z,10
2022-10-09T03:18:17.696Z,9
2022-10-09T03:19:17.756Z,9
2022-10-09T03:20:17.717Z,9
2022-10-09T03:21:17.689Z,7
2022-10-09T03:22:17.737Z,9
2022-10-09T03:23:17.620Z,10
2022-10-09T03:24:17.738Z,8
2022-10-09T03:25:17.630Z,9
2022-10-09T03:26:17.611Z,9
2022-10-09T03:27:17.647Z,7
2022-10-09T03:28:17.725Z,8
2022-10-09T03:29:17.666Z,9
2022-10-09T03:30:17.602Z,10
2022-10-09T03:31:33.346Z,9
2022-10-09T03:32:17.700Z,8
2022-10-09T03:33:17.689Z,7
2022-10-09T03:34:17.709Z,7
2022-10-09T03:35:17.722Z,7
2022-10-09T03:36:17.695Z,10
2022-10-09T03:37:17.701Z,9
2022-10-09T03:38:17.710Z,11
2022-10-09T03:39:17.669Z,9
2022-10-09T03:40:17.776Z,8
2022-10-09T03:41:17.619Z,11
2022-10-09T03:42:17.749Z,10
2022-10-09T03:43:17.644Z,10
2022-10-09T03:44:17.624Z,10
2022-10-09T03:45:17.599Z,9
2022-10-09T03:46:17.729Z,8
2022-10-09T03:47:17.761Z,9
2022-10-09T03:48:17.719Z,9
2022-10-09T03:49:17.697Z,10
2022-10-09T03:50:17.694Z,8
2022-10-09T03:51:17.620Z,8
2022-10-09T03:52:17.696Z,6
2022-10-09T03:53:17.708Z,6
2022-10-09T03:54:17.739Z,8
2022-10-09T03:55:17.648Z,10
2022-10-09T03:56:17.762Z,7
2022-10-09T03:57:17.629Z,8
2022-10-09T03:58:17.628Z,9
2022-10-09T03:59:17.791Z,8
2022-10-09T04:00:17.694Z,9
2022-10-09T04:01:17.735Z,7
2022-10-09T04:02:17.637Z,8
2022-10-09T04:03:17.785Z,7
2022-10-09T04:04:17.687Z,8
2022-10-09T04:05:17.676Z,8
2022-10-09T04:06:17.626Z,11
2022-10-09T04:07:17.698Z,8
2022-10-09T04:08:17.697Z,9
2022-10-09T04:09:17.620Z,8
2022-10-09T04:13:55.543Z,6
2022-10-09T04:14:18.404Z,8
2022-10-09T04:15:18.072Z,7
2022-10-09T04:16:17.850Z,10
2022-10-09T04:17:17.713Z,10
2022-10-09T04:18:17.764Z,6
2022-10-09T04:19:17.731Z,7
2022-10-09T04:20:17.628Z,7
2022-10-09T04:21:17.627Z,8
2022-10-09T04:22:17.611Z,7
2022-10-09T04:23:17.646Z,8
2022-10-09T04:24:17.754Z,9
2022-10-09T04:25:17.662Z,8
2022-10-09T04:26:17.663Z,9
2022-10-09T04:27:17.648Z,8
2022-10-09T04:28:17.745Z,7
2022-10-09T04:29:17.696Z,9
2022-10-09T04:30:17.686Z,10
2022-10-09T04:31:17.760Z,7
2022-10-09T04:32:17.700Z,10
2022-10-09T04:33:17.727Z,9
2022-10-09T04:34:17.718Z,8
2022-10-09T04:35:17.595Z,8
2022-10-09T04:36:17.616Z,10
2022-10-09T04:37:17.605Z,9
2022-10-09T04:38:17.746Z,8
2022-10-09T04:39:17.664Z,10
2022-10-09T04:40:17.590Z,7
2022-10-09T04:41:17.769Z,8
2022-10-09T04:42:17.661Z,8
2022-10-09T04:43:17.666Z,11
2022-10-09T04:44:17.680Z,9
2022-10-09T04:45:17.725Z,8
2022-10-09T04:46:17.805Z,8
2022-10-09T04:47:17.706Z,7
2022-10-09T04:48:17.731Z,9
2022-10-09T04:49:17.670Z,10
2022-10-09T04:50:17.643Z,10
2022-10-09T04:51:17.621Z,8
2022-10-09T04:52:17.766Z,9
2022-10-09T04:53:17.642Z,7
2022-10-09T04:54:17.650Z,10
2022-10-09T04:55:17.642Z,10
2022-10-09T04:56:17.614Z,7
2022-10-09T04:57:17.765Z,8
2022-10-09T04:58:17.665Z,8
2022-10-09T04:59:17.683Z,7
2022-10-09T05:00:17.604Z,9
2022-10-09T05:01:17.738Z,8
2022-10-09T05:02:17.710Z,9
2022-10-09T05:03:17.716Z,9
2022-10-09T05:04:17.588Z,7
2022-10-09T05:05:17.704Z,9
2022-10-09T05:06:17.718Z,8
2022-10-09T05:07:17.626Z,10
2022-10-09T05:08:17.633Z,11
2022-10-09T05:09:17.632Z,8
2022-10-09T05:10:17.651Z,9
2022-10-09T05:11:17.666Z,8
2022-10-09T05:12:17.599Z,7
2022-10-09T05:13:17.661Z,8
2022-10-09T05:14:17.598Z,8
2022-10-09T05:15:17.600Z,10
2022-10-09T05:16:17.768Z,8
2022-10-09T05:17:22.056Z,10
2022-10-09T05:18:17.981Z,8
2022-10-09T05:19:17.883Z,11
2022-10-09T05:20:17.989Z,6
2022-10-09T05:21:17.713Z,7
2022-10-09T05:22:17.640Z,8
2022-10-09T05:23:17.637Z,8
2022-10-09T05:24:17.637Z,9
2022-10-09T05:25:17.599Z,11
2022-10-09T05:26:17.639Z,9
2022-10-09T05:27:17.610Z,7
2022-10-09T05:28:17.816Z,7
2022-10-09T05:29:17.646Z,9
2022-10-09T05:30:17.660Z,13
2022-10-09T05:31:17.700Z,8
2022-10-09T05:32:17.688Z,9
2022-10-09T05:33:17.704Z,9
2022-10-09T05:34:17.693Z,8
2022-10-09T05:35:17.701Z,11
2022-10-09T05:36:17.715Z,8
2022-10-09T05:37:17.713Z,9
2022-10-09T05:38:17.602Z,7
2022-10-09T05:39:17.628Z,12
2022-10-09T05:40:17.617Z,8
2022-10-09T05:41:17.648Z,11
2022-10-09T05:42:17.607Z,9
2022-10-09T05:43:17.614Z,9
2022-10-09T05:44:17.664Z,7
2022-10-09T05:45:17.661Z,9
2022-10-09T05:46:17.768Z,8
2022-10-09T05:47:17.694Z,8
2022-10-09T05:48:17.718Z,8
2022-10-09T05:49:17.692Z,7
2022-10-09T05:50:17.697Z,9
2022-10-09T05:51:17.637Z,7
2022-10-09T05:52:17.700Z,8
2022-10-09T05:53:17.605Z,11
2022-10-09T05:54:17.594Z,8
2022-10-09T05:55:17.626Z,11
2022-10-09T05:56:17.572Z,7
2022-10-09T05:57:17.611Z,7
2022-10-09T05:58:17.670Z,5
2022-10-09T05:59:17.609Z,7
2022-10-09T06:00:17.640Z,6
2022-10-09T06:01:17.767Z,10
2022-10-09T06:02:17.729Z,8
2022-10-09T06:03:17.699Z,7
2022-10-09T06:04:17.693Z,6
2022-10-09T06:05:17.601Z,10
2022-10-09T06:06:17.601Z,7
2022-10-09T06:07:17.671Z,5
2022-10-09T06:08:17.644Z,9
2022-10-09T06:09:17.591Z,6
2022-10-09T06:10:17.714Z,7
2022-10-09T06:11:17.623Z,9
2022-10-09T06:12:17.629Z,6
2022-10-09T06:13:17.639Z,7
2022-10-09T06:14:17.637Z,6
2022-10-09T06:15:17.655Z,7
2022-10-09T06:16:17.883Z,7
2022-10-09T06:17:17.598Z,8
2022-10-09T06:18:17.689Z,9
2022-10-09T06:19:17.681Z,8
2022-10-09T06:20:17.810Z,6
2022-10-09T06:21:17.789Z,5
2022-10-09T06:22:17.968Z,9
2022-10-09T06:23:17.775Z,10
2022-10-09T06:24:17.829Z,6
2022-10-09T06:25:17.959Z,8
2022-10-09T06:26:18.015Z,9
2022-10-09T06:27:17.614Z,10
2022-10-09T06:28:17.605Z,10
2022-10-09T06:29:17.729Z,8
2022-10-09T06:30:17.609Z,11
2022-10-09T06:31:17.703Z,9
2022-10-09T06:32:17.685Z,9
2022-10-09T06:33:17.690Z,6
2022-10-09T06:34:17.675Z,12
2022-10-09T06:35:17.670Z,7
2022-10-09T06:36:17.682Z,10
2022-10-09T06:37:17.693Z,7
2022-10-09T06:38:17.635Z,8
2022-10-09T06:39:17.706Z,8
2022-10-09T06:40:17.607Z,10
2022-10-09T06:41:17.605Z,10
2022-10-09T06:42:17.639Z,11
2022-10-09T06:43:17.597Z,12
2022-10-09T06:44:17.642Z,6
2022-10-09T06:45:17.757Z,9
2022-10-09T06:46:17.825Z,7
2022-10-09T06:47:17.757Z,6
2022-10-09T06:48:17.630Z,12
2022-10-09T06:49:17.675Z,7
2022-10-09T06:50:17.677Z,6
2022-10-09T06:51:17.692Z,7
2022-10-09T06:52:17.686Z,10
2022-10-09T06:53:17.796Z,8
2022-10-09T06:54:17.699Z,7
2022-10-09T06:55:17.706Z,7
2022-10-09T06:56:17.600Z,7
2022-10-09T06:57:17.717Z,10
2022-10-09T06:58:17.632Z,9
2022-10-09T06:59:17.621Z,6
2022-10-09T07:00:17.634Z,6
2022-10-09T07:01:17.738Z,6
2022-10-09T07:02:17.789Z,8
2022-10-09T07:03:17.676Z,8
2022-10-09T07:04:17.702Z,7
2022-10-09T07:05:17.674Z,5
2022-10-09T07:06:17.668Z,8
2022-10-09T07:07:17.682Z,9
2022-10-09T07:08:17.690Z,10
2022-10-09T07:09:17.683Z,5
2022-10-09T07:10:21.646Z,7
2022-10-09T07:11:17.753Z,7
2022-10-09T07:12:17.601Z,9
2022-10-09T07:13:17.615Z,7
2022-10-09T07:14:17.728Z,5
2022-10-09T07:15:17.631Z,7
2022-10-09T07:16:17.705Z,6
2022-10-09T07:17:17.636Z,7
2022-10-09T07:18:17.776Z,8
2022-10-09T07:19:17.802Z,5
2022-10-09T07:20:17.654Z,6
2022-10-09T07:21:17.679Z,8
2022-10-09T07:22:17.696Z,6
2022-10-09T07:23:17.687Z,9
2022-10-09T07:24:17.708Z,11
2022-10-09T07:25:17.798Z,8
2022-10-09T07:26:17.845Z,12
2022-10-09T07:27:17.703Z,4
2022-10-09T07:28:17.747Z,7
2022-10-09T07:29:17.608Z,6
2022-10-09T07:30:17.625Z,6
2022-10-09T07:31:17.663Z,7
2022-10-09T07:32:17.603Z,8
2022-10-09T07:33:17.769Z,8
2022-10-09T07:34:17.649Z,6
2022-10-09T07:35:17.651Z,7
2022-10-09T07:36:17.604Z,9
2022-10-09T07:37:17.600Z,7
2022-10-09T07:38:17.672Z,7
2022-10-09T07:39:17.703Z,7
2022-10-09T07:40:17.688Z,6
2022-10-09T07:41:17.713Z,6
2022-10-09T07:42:17.700Z,5
2022-10-09T07:43:18.420Z,5
2022-10-09T07:44:17.714Z,8
2022-10-09T07:45:17.627Z,6
2022-10-09T07:46:17.691Z,7
2022-10-09T07:47:17.631Z,8
2022-10-09T07:48:17.645Z,7
2022-10-09T07:49:17.649Z,8
2022-10-09T07:50:17.659Z,7
2022-10-09T07:51:17.608Z,7
2022-10-09T07:52:17.666Z,7
2022-10-09T07:53:17.774Z,6
2022-10-09T07:54:17.716Z,7
2022-10-09T07:55:17.704Z,10
2022-10-09T07:56:17.665Z,5
2022-10-09T07:57:17.709Z,6
2022-10-09T07:58:17.607Z,7
2022-10-09T07:59:17.605Z,6
2022-10-09T08:00:17.610Z,7
2022-10-09T08:01:20.370Z,9
2022-10-09T08:02:17.724Z,6
2022-10-09T08:03:17.658Z,6
2022-10-09T08:04:17.736Z,6
2022-10-09T08:05:17.743Z,7
2022-10-09T08:06:17.658Z,6
2022-10-09T08:07:17.655Z,7
2022-10-09T08:08:17.670Z,7
2022-10-09T08:09:17.663Z,6
2022-10-09T08:10:17.688Z,10
2022-10-09T08:11:17.600Z,7
2022-10-09T08:12:17.690Z,6
2022-10-09T08:13:17.646Z,6
2022-10-09T08:14:19.442Z,7
2022-10-09T08:15:17.594Z,7
2022-10-09T08:16:17.727Z,5
2022-10-09T08:17:17.597Z,8
2022-10-09T08:18:17.689Z,5
2022-10-09T08:19:17.602Z,7
2022-10-09T08:20:17.661Z,6
2022-10-09T08:21:17.634Z,8
2022-10-09T08:22:17.611Z,7
2022-10-09T08:23:17.615Z,7
2022-10-09T08:24:17.613Z,6
2022-10-09T08:25:17.617Z,8
2022-10-09T08:26:17.783Z,6
2022-10-09T08:27:17.623Z,6
2022-10-09T08:28:17.750Z,8
2022-10-09T08:29:17.608Z,6
2022-10-09T08:30:17.595Z,8
2022-10-09T08:31:17.774Z,6
2022-10-09T08:32:17.593Z,6
2022-10-09T08:33:17.700Z,8
2022-10-09T08:34:17.604Z,6
2022-10-09T08:35:17.655Z,6
2022-10-09T08:36:17.641Z,9
2022-10-09T08:37:17.597Z,6
2022-10-09T08:38:31.279Z,6
2022-10-09T08:39:17.601Z,8
2022-10-09T08:40:17.595Z,7
2022-10-09T08:41:17.666Z,11
2022-10-09T08:42:17.609Z,6
2022-10-09T08:43:17.662Z,7
2022-10-09T08:44:17.636Z,4
2022-10-09T08:45:17.611Z,7
2022-10-09T08:46:20.790Z,8
2022-10-09T08:47:17.606Z,6
2022-10-09T08:48:17.697Z,6
2022-10-09T08:49:17.683Z,5
2022-10-09T08:50:17.609Z,7
2022-10-09T08:51:17.657Z,8
2022-10-09T08:52:17.656Z,9
2022-10-09T08:53:17.622Z,6
2022-10-09T08:54:17.612Z,13
2022-10-09T08:55:17.610Z,12
2022-10-09T08:56:17.596Z,6
2022-10-09T08:57:17.640Z,10
2022-10-09T08:58:17.894Z,25
2022-10-09T08:59:17.644Z,11
2022-10-09T09:00:17.604Z,11
2022-10-09T09:01:17.731Z,7
2022-10-09T09:02:17.750Z,17
2022-10-09T09:03:17.680Z,9
2022-10-09T09:04:17.632Z,12
2022-10-09T09:05:17.633Z,7
2022-10-09T09:06:17.748Z,7
2022-10-09T09:07:17.750Z,7
2022-10-09T09:08:17.652Z,6
2022-10-09T09:09:17.662Z,5
2022-10-09T09:10:18.940Z,6
2022-10-09T09:11:21.482Z,6
2022-10-09T09:12:17.723Z,9
2022-10-09T09:13:17.690Z,11
2022-10-09T09:14:17.660Z,6
2022-10-09T09:15:17.652Z,8
2022-10-09T09:16:18.065Z,8
2022-10-09T09:17:17.808Z,5
2022-10-09T09:18:17.638Z,7
2022-10-09T09:19:17.622Z,4
2022-10-09T09:20:17.625Z,6
2022-10-09T09:21:17.626Z,8
2022-10-09T09:22:17.785Z,6
2022-10-09T09:23:17.749Z,6
2022-10-09T09:24:17.669Z,5
2022-10-09T09:25:17.620Z,5
2022-10-09T09:26:17.613Z,6
2022-10-09T09:27:17.608Z,6
2022-10-09T09:28:17.739Z,6
2022-10-09T09:29:17.684Z,6
2022-10-09T09:30:17.701Z,8
2022-10-09T09:31:17.793Z,9
2022-10-09T09:32:17.709Z,8
2022-10-09T09:33:17.736Z,5
2022-10-09T09:34:17.707Z,5
2022-10-09T09:35:17.640Z,7
2022-10-09T09:36:17.623Z,6
2022-10-09T09:37:17.652Z,5
2022-10-09T09:38:17.648Z,10
2022-10-09T09:40:36.221Z,12
2022-10-09T09:41:17.669Z,13
2022-10-09T09:42:17.671Z,12
2022-10-09T09:43:17.691Z,8
2022-10-09T09:44:17.683Z,10
2022-10-09T09:45:17.716Z,8
2022-10-09T09:46:17.765Z,7
2022-10-09T09:47:17.619Z,7
2022-10-09T09:48:17.674Z,6
2022-10-09T09:49:17.596Z,6
2022-10-09T09:50:42.306Z,5
2022-10-09T09:51:28.004Z,7
2022-10-09T09:52:17.603Z,6
2022-10-09T09:53:17.658Z,5
2022-10-09T09:54:17.653Z,4
2022-10-09T09:55:17.619Z,5
2022-10-09T09:56:17.606Z,6
2022-10-09T09:57:21.830Z,4
2022-10-09T09:58:17.597Z,5
2022-10-09T09:59:17.640Z,6
2022-10-09T10:00:17.610Z,5
2022-10-09T10:01:17.684Z,5
2022-10-09T10:02:17.824Z,4
2022-10-09T10:03:17.723Z,4
2022-10-09T10:04:17.599Z,7
2022-10-09T10:05:17.596Z,4
2022-10-09T10:06:17.611Z,6
2022-10-09T10:07:17.615Z,6
2022-10-09T10:08:17.633Z,9
2022-10-09T10:09:17.769Z,5
2022-10-09T10:10:22.425Z,5
2022-10-09T10:11:17.649Z,5
2022-10-09T10:12:17.670Z,5
2022-10-09T10:13:17.678Z,5
2022-10-09T10:14:17.659Z,5
2022-10-09T10:15:17.609Z,5
2022-10-09T10:16:17.873Z,8
2022-10-09T10:17:17.661Z,8
2022-10-09T10:18:17.717Z,5
2022-10-09T10:19:17.618Z,7
2022-10-09T10:20:17.820Z,8
2022-10-09T10:21:17.603Z,5
2022-10-09T10:22:17.717Z,6
2022-10-09T10:23:17.618Z,7
2022-10-09T10:24:17.733Z,6
2022-10-09T10:25:17.741Z,4
2022-10-09T10:26:17.643Z,4
2022-10-09T10:27:17.752Z,5
2022-10-09T10:28:17.691Z,5
2022-10-09T10:29:17.676Z,6
2022-10-09T10:30:17.771Z,5
2022-10-09T10:31:17.766Z,4
2022-10-09T10:32:17.666Z,4
2022-10-09T10:33:17.686Z,9
2022-10-09T10:34:17.708Z,5
2022-10-09T10:35:17.698Z,6
2022-10-09T10:36:17.717Z,4
2022-10-09T10:37:17.714Z,4
2022-10-09T10:38:17.718Z,5
2022-10-09T10:39:17.638Z,5
2022-10-09T10:40:17.842Z,5
2022-10-09T10:41:17.634Z,4
2022-10-09T10:42:17.650Z,5
2022-10-09T10:43:17.668Z,4
2022-10-09T10:44:17.681Z,7
2022-10-09T10:45:17.639Z,3
2022-10-09T10:46:17.691Z,4
2022-10-09T10:47:17.662Z,5
2022-10-09T10:48:17.702Z,4
2022-10-09T10:49:17.702Z,4
2022-10-09T10:50:17.776Z,5
2022-10-09T10:51:17.604Z,5
2022-10-09T10:52:17.822Z,4
2022-10-09T10:53:17.726Z,6
2022-10-09T10:54:17.617Z,4
2022-10-09T10:55:17.733Z,6
2022-10-09T10:56:17.661Z,3
2022-10-09T10:57:17.629Z,2
2022-10-09T10:58:17.731Z,3
2022-10-09T10:59:17.617Z,2
2022-10-09T11:00:17.768Z,4
2022-10-09T11:01:17.746Z,4
2022-10-09T11:02:17.670Z,5
2022-10-09T11:03:17.766Z,6
2022-10-09T11:04:17.699Z,3
2022-10-09T11:05:17.626Z,2
2022-10-09T11:06:17.693Z,3
2022-10-09T11:07:17.711Z,4
2022-10-09T11:08:17.712Z,4
2022-10-09T11:09:17.717Z,4
2022-10-09T11:10:17.709Z,5
2022-10-09T11:11:17.728Z,2
2022-10-09T11:12:24.876Z,4
2022-10-09T11:13:17.621Z,4
2022-10-09T11:14:20.166Z,4
2022-10-09T11:15:17.616Z,4
2022-10-09T11:16:17.773Z,4
2022-10-09T11:17:17.630Z,2
2022-10-09T11:18:17.639Z,3
2022-10-09T11:19:17.662Z,2
2022-10-09T11:20:17.623Z,5
2022-10-09T11:21:17.627Z,4
2022-10-09T11:22:17.628Z,3
2022-10-09T11:23:17.618Z,4
2022-10-09T11:24:17.621Z,2
2022-10-09T11:25:17.622Z,4
2022-10-09T11:26:17.645Z,3
2022-10-09T11:27:17.682Z,3
2022-10-09T11:28:17.646Z,3
2022-10-09T11:29:17.666Z,4
2022-10-09T11:30:17.604Z,2
2022-10-09T11:31:17.705Z,2
2022-10-09T11:32:17.645Z,3
2022-10-09T11:33:17.693Z,3
2022-10-09T11:34:17.679Z,2
2022-10-09T11:35:17.679Z,3
2022-10-09T11:36:17.690Z,2
2022-10-09T11:37:17.786Z,2
2022-10-09T11:38:17.707Z,3
2022-10-09T11:39:17.615Z,5
2022-10-09T11:40:17.686Z,5
2022-10-09T11:41:17.738Z,3
2022-10-09T11:42:17.677Z,4
2022-10-09T11:43:17.738Z,4
2022-10-09T11:44:17.634Z,3
2022-10-09T11:45:17.742Z,4
2022-10-09T11:46:17.687Z,3
2022-10-09T11:47:17.630Z,2
2022-10-09T11:48:17.714Z,3
2022-10-09T11:49:17.617Z,3
2022-10-09T11:50:17.669Z,3
2022-10-09T11:51:17.623Z,2
2022-10-09T11:52:17.621Z,3
2022-10-09T11:53:17.623Z,4
2022-10-09T11:54:17.769Z,3
2022-10-09T11:55:17.621Z,2
2022-10-09T11:56:17.620Z,2
2022-10-09T11:57:17.694Z,2
2022-10-09T11:58:17.671Z,2
2022-10-09T11:59:17.632Z,2
2022-10-09T12:00:17.627Z,3
2022-10-09T12:01:17.715Z,3
2022-10-09T12:02:17.690Z,4
2022-10-09T12:03:17.671Z,3
2022-10-09T12:04:23.871Z,3
2022-10-09T12:05:17.770Z,3
2022-10-09T12:06:17.680Z,3
2022-10-09T12:07:17.630Z,3
2022-10-09T12:08:19.511Z,3
2022-10-09T12:09:17.635Z,4
2022-10-09T12:10:17.965Z,2
2022-10-09T12:11:17.886Z,4
2022-10-09T12:12:17.830Z,5
2022-10-09T12:13:17.673Z,4
2022-10-09T12:14:20.247Z,5
2022-10-09T12:15:17.616Z,3
2022-10-09T12:16:17.681Z,2
2022-10-09T12:17:17.630Z,4
2022-10-09T12:18:17.693Z,2
2022-10-09T12:19:17.642Z,5
2022-10-09T12:20:17.634Z,4
2022-10-09T12:21:17.682Z,4
2022-10-09T12:22:17.623Z,2
2022-10-09T12:23:33.486Z,1
2022-10-09T12:24:17.630Z,3
2022-10-09T12:25:17.629Z,3
2022-10-09T12:26:17.649Z,2
2022-10-09T12:27:17.706Z,3
2022-10-09T12:28:17.734Z,3
2022-10-09T12:29:17.713Z,2
2022-10-09T12:30:17.636Z,3
2022-10-09T12:31:17.763Z,2
2022-10-09T12:32:17.702Z,2
2022-10-09T12:33:17.678Z,3
2022-10-09T12:34:17.662Z,4
2022-10-09T12:35:17.626Z,3
2022-10-09T12:36:17.758Z,3
2022-10-09T12:37:17.684Z,3
2022-10-09T12:38:17.631Z,3
2022-10-09T12:39:17.652Z,3
2022-10-09T12:40:17.653Z,2
2022-10-09T12:41:20.290Z,4
2022-10-09T12:42:17.719Z,3
2022-10-09T12:43:17.719Z,3
2022-10-09T12:44:17.696Z,3
2022-10-09T12:45:17.667Z,4
2022-10-09T12:46:17.768Z,2
2022-10-09T12:47:17.645Z,4
2022-10-09T12:48:17.777Z,4
2022-10-09T12:49:17.629Z,3
2022-10-09T12:50:17.643Z,2
2022-10-09T12:51:17.627Z,5
2022-10-09T12:52:17.676Z,3
2022-10-09T12:53:17.740Z,3
2022-10-09T12:54:17.648Z,3
2022-10-09T12:55:17.732Z,4
2022-10-09T12:56:17.703Z,2
2022-10-09T12:57:17.638Z,2
2022-10-09T12:58:17.637Z,2
2022-10-09T12:59:17.695Z,3
2022-10-09T13:00:17.671Z,2
2022-10-09T13:01:17.779Z,3
2022-10-09T13:02:17.791Z,3
2022-10-09T13:03:17.655Z,3
2022-10-09T13:04:17.683Z,2
2022-10-09T13:05:17.648Z,2
2022-10-09T13:06:17.640Z,3
2022-10-09T13:07:17.708Z,5
2022-10-09T13:08:17.687Z,2
2022-10-09T13:09:17.635Z,4
2022-10-09T13:10:17.692Z,4
2022-10-09T13:11:17.637Z,3
2022-10-09T13:12:17.656Z,3
2022-10-09T13:13:17.641Z,2
2022-10-09T13:14:17.647Z,1
2022-10-09T13:15:19.070Z,4
2022-10-09T13:16:17.829Z,3
2022-10-09T13:17:17.729Z,2
2022-10-09T13:18:17.748Z,2
2022-10-09T13:19:17.662Z,2
2022-10-09T13:20:17.688Z,3
2022-10-09T13:21:17.654Z,2
2022-10-09T13:22:17.641Z,2
2022-10-09T13:23:17.705Z,3
2022-10-09T13:24:17.680Z,3
2022-10-09T13:25:17.643Z,2
2022-10-09T13:26:17.631Z,3
2022-10-09T13:27:17.653Z,2
2022-10-09T13:28:17.695Z,3
2022-10-09T13:29:17.644Z,4
2022-10-09T13:30:17.654Z,3
2022-10-09T13:31:17.769Z,3
2022-10-09T13:32:17.659Z,2
2022-10-09T13:33:17.675Z,2
2022-10-09T13:34:17.651Z,2
2022-10-09T13:35:17.645Z,4
2022-10-09T13:36:17.673Z,2
2022-10-09T13:37:17.646Z,3
2022-10-09T13:38:17.724Z,2
2022-10-09T13:39:17.691Z,3
2022-10-09T13:40:17.645Z,2
2022-10-09T13:41:17.656Z,2
2022-10-09T13:42:17.650Z,4
2022-10-09T13:43:17.641Z,2
2022-10-09T13:44:17.642Z,3
2022-10-09T13:45:17.647Z,4
2022-10-09T13:46:17.793Z,3
2022-10-09T13:47:20.758Z,3
2022-10-09T13:48:17.676Z,2
2022-10-09T13:49:17.707Z,3
2022-10-09T13:50:17.660Z,2
2022-10-09T13:51:17.683Z,6
2022-10-09T13:52:17.653Z,2
2022-10-09T13:53:17.690Z,3
2022-10-09T13:54:17.723Z,4
2022-10-09T13:55:17.677Z,3
2022-10-09T13:56:17.653Z,3
2022-10-09T13:57:17.674Z,2
2022-10-09T13:58:17.649Z,3
2022-10-09T13:59:17.682Z,2
2022-10-09T14:00:17.658Z,2
2022-10-09T14:01:17.728Z,3
2022-10-09T14:02:17.703Z,3
2022-10-09T14:03:17.669Z,2
2022-10-09T14:04:17.648Z,3
2022-10-09T14:05:17.656Z,2
2022-10-09T14:06:17.707Z,2
2022-10-09T14:07:17.681Z,2
2022-10-09T14:08:17.654Z,4
2022-10-09T14:09:17.653Z,3
2022-10-09T14:10:21.726Z,3
2022-10-09T14:11:17.653Z,2
2022-10-09T14:12:17.650Z,4
2022-10-09T14:13:17.653Z,3
2022-10-09T14:14:17.661Z,2
2022-10-09T14:15:17.649Z,2
2022-10-09T14:16:17.655Z,2
2022-10-09T14:17:17.753Z,3
2022-10-09T14:18:17.746Z,2
2022-10-09T14:19:17.666Z,3
2022-10-09T14:20:17.704Z,2
2022-10-09T14:21:17.686Z,2
2022-10-09T14:22:17.647Z,2
2022-10-09T14:23:17.662Z,3
2022-10-09T14:24:17.677Z,2
2022-10-09T14:25:17.699Z,2
2022-10-09T14:26:17.715Z,3
2022-10-09T14:27:17.657Z,2
2022-10-09T14:28:17.832Z,2
2022-10-09T14:29:17.664Z,2
2022-10-09T14:30:17.686Z,2
2022-10-09T14:31:17.741Z,2
2022-10-09T14:32:17.669Z,4
2022-10-09T14:33:17.724Z,3
2022-10-09T14:34:17.733Z,2
2022-10-09T14:35:19.406Z,2
2022-10-09T14:36:17.663Z,2
2022-10-09T14:37:36.807Z,3
2022-10-09T14:38:17.906Z,2
2022-10-09T14:39:17.740Z,3
2022-10-09T14:40:17.743Z,2
2022-10-09T14:41:17.754Z,1
2022-10-09T14:42:17.777Z,3
2022-10-09T14:43:17.768Z,2
2022-10-09T14:44:17.774Z,3
2022-10-09T14:45:17.675Z,2
2022-10-09T14:46:17.682Z,3
2022-10-09T14:47:17.658Z,2